Pollockville, Canada
Current Conditions -  °F | °C
As of 4:00 PM on Thursday 27 Nov 2014 (Local Time) from CYXH Reporting Station
Overcast Overcast  
Wind Chill: 23°   Ceiling: 1200
Heat Index: 30°   Visibility: 15mi
Dew Point: 28°   Wind: 7mph
Humidity: 93%   Direction: 290°WNW
Pressure: 29.73"   Gusts: NA
Location:  51.1°N, 111.59°W
Report Text: CYXH 272300Z 29006KT 15SM OVC012 M01/M02 A2973 RMK SC8 SLP097
Loading
Personal Weather Stations






























Interactive Weather Map New forecast layout! Learn more

10-Day Weather Forecast

Advertisements
Track Severe Weather on mobile